sensor_id;sensor_type;location;lat;lon;timestamp;temperature;humidity
30999;DHT22;20549;50.042;8.968;2023-01-24T00:02:21;5.00;89.00
30999;DHT22;20549;50.042;8.968;2023-01-24T00:04:48;5.00;89.00
30999;DHT22;20549;50.042;8.968;2023-01-24T00:07:14;5.00;89.10
30999;DHT22;20549;50.042;8.968;2023-01-24T00:09:41;5.00;89.00
30999;DHT22;20549;50.042;8.968;2023-01-24T00:12:07;5.00;89.00
30999;DHT22;20549;50.042;8.968;2023-01-24T00:14:34;5.00;89.10
30999;DHT22;20549;50.042;8.968;2023-01-24T00:17:01;5.00;89.20
30999;DHT22;20549;50.042;8.968;2023-01-24T00:19:27;5.00;89.20
30999;DHT22;20549;50.042;8.968;2023-01-24T00:21:54;5.00;89.20
30999;DHT22;20549;50.042;8.968;2023-01-24T00:24:20;5.00;89.20
30999;DHT22;20549;50.042;8.968;2023-01-24T00:26:47;5.00;89.20
30999;DHT22;20549;50.042;8.968;2023-01-24T00:29:14;5.00;89.20
30999;DHT22;20549;50.042;8.968;2023-01-24T00:31:40;5.00;89.10
30999;DHT22;20549;50.042;8.968;2023-01-24T00:34:07;5.00;89.10
30999;DHT22;20549;50.042;8.968;2023-01-24T00:36:33;5.00;89.20
30999;DHT22;20549;50.042;8.968;2023-01-24T00:39:00;5.00;89.30
30999;DHT22;20549;50.042;8.968;2023-01-24T00:41:27;5.00;89.40
30999;DHT22;20549;50.042;8.968;2023-01-24T00:43:53;5.00;89.50
30999;DHT22;20549;50.042;8.968;2023-01-24T00:46:20;5.10;89.60
30999;DHT22;20549;50.042;8.968;2023-01-24T00:48:46;5.10;89.70
30999;DHT22;20549;50.042;8.968;2023-01-24T00:51:13;5.10;89.70
30999;DHT22;20549;50.042;8.968;2023-01-24T00:53:39;5.10;89.70
30999;DHT22;20549;50.042;8.968;2023-01-24T00:56:06;5.20;89.70
30999;DHT22;20549;50.042;8.968;2023-01-24T00:58:33;5.20;89.70
30999;DHT22;20549;50.042;8.968;2023-01-24T01:00:59;5.20;89.60
30999;DHT22;20549;50.042;8.968;2023-01-24T01:03:26;5.20;89.40
30999;DHT22;20549;50.042;8.968;2023-01-24T01:05:59;5.20;89.30
30999;DHT22;20549;50.042;8.968;2023-01-24T01:08:25;5.20;89.20
30999;DHT22;20549;50.042;8.968;2023-01-24T01:10:52;5.20;89.00
30999;DHT22;20549;50.042;8.968;2023-01-24T01:13:18;5.10;88.80
30999;DHT22;20549;50.042;8.968;2023-01-24T01:15:45;5.10;88.60
30999;DHT22;20549;50.042;8.968;2023-01-24T01:18:12;5.00;87.70
30999;DHT22;20549;50.042;8.968;2023-01-24T01:20:38;5.00;88.30
30999;DHT22;20549;50.042;8.968;2023-01-24T01:23:05;4.90;88.20
30999;DHT22;20549;50.042;8.968;2023-01-24T01:25:31;4.90;88.30
30999;DHT22;20549;50.042;8.968;2023-01-24T01:27:58;4.80;88.30
30999;DHT22;20549;50.042;8.968;2023-01-24T01:30:25;4.80;88.30
30999;DHT22;20549;50.042;8.968;2023-01-24T01:32:51;4.70;88.30
30999;DHT22;20549;50.042;8.968;2023-01-24T01:35:18;4.70;88.50
30999;DHT22;20549;50.042;8.968;2023-01-24T01:37:44;4.60;88.50
30999;DHT22;20549;50.042;8.968;2023-01-24T01:40:11;4.60;88.70
30999;DHT22;20549;50.042;8.968;2023-01-24T01:48:02;4.50;89.30
30999;DHT22;20549;50.042;8.968;2023-01-24T01:50:31;4.40;89.60
30999;DHT22;20549;50.042;8.968;2023-01-24T01:52:57;4.40;90.00
30999;DHT22;20549;50.042;8.968;2023-01-24T01:55:24;4.40;90.10
30999;DHT22;20549;50.042;8.968;2023-01-24T01:57:50;4.40;90.30
30999;DHT22;20549;50.042;8.968;2023-01-24T02:00:18;4.50;90.40
30999;DHT22;20549;50.042;8.968;2023-01-24T02:02:45;4.50;90.50
30999;DHT22;20549;50.042;8.968;2023-01-24T02:05:11;4.50;90.60
30999;DHT22;20549;50.042;8.968;2023-01-24T02:07:51;4.60;90.70
30999;DHT22;20549;50.042;8.968;2023-01-24T02:10:12;4.60;90.70
30999;DHT22;20549;50.042;8.968;2023-01-24T02:12:40;4.70;90.70
30999;DHT22;20549;50.042;8.968;2023-01-24T02:15:06;4.70;90.70
30999;DHT22;20549;50.042;8.968;2023-01-24T02:17:50;4.70;90.60
30999;DHT22;20549;50.042;8.968;2023-01-24T02:28:31;4.80;90.40
30999;DHT22;20549;50.042;8.968;2023-01-24T02:30:58;4.80;90.40
30999;DHT22;20549;50.042;8.968;2023-01-24T02:33:24;4.90;90.50
30999;DHT22;20549;50.042;8.968;2023-01-24T02:35:51;4.90;90.50
30999;DHT22;20549;50.042;8.968;2023-01-24T02:38:26;4.90;90.50
30999;DHT22;20549;50.042;8.968;2023-01-24T02:40:53;4.90;90.40
30999;DHT22;20549;50.042;8.968;2023-01-24T02:43:19;5.00;90.40
30999;DHT22;20549;50.042;8.968;2023-01-24T02:45:46;5.00;90.40
30999;DHT22;20549;50.042;8.968;2023-01-24T02:48:12;5.00;90.40
30999;DHT22;20549;50.042;8.968;2023-01-24T02:50:39;5.00;90.30
30999;DHT22;20549;50.042;8.968;2023-01-24T02:53:24;5.00;90.30
30999;DHT22;20549;50.042;8.968;2023-01-24T02:56:00;5.10;90.30
30999;DHT22;20549;50.042;8.968;2023-01-24T02:58:44;5.10;90.20
30999;DHT22;20549;50.042;8.968;2023-01-24T03:01:10;5.10;90.20
30999;DHT22;20549;50.042;8.968;2023-01-24T03:03:37;5.10;90.20
30999;DHT22;20549;50.042;8.968;2023-01-24T03:06:03;5.10;90.20
30999;DHT22;20549;50.042;8.968;2023-01-24T03:08:31;5.20;90.20
30999;DHT22;20549;50.042;8.968;2023-01-24T03:10:57;5.20;90.20
30999;DHT22;20549;50.042;8.968;2023-01-24T03:13:24;5.20;90.10
30999;DHT22;20549;50.042;8.968;2023-01-24T03:16:08;5.20;90.10
30999;DHT22;20549;50.042;8.968;2023-01-24T03:18:53;5.20;90.00
30999;DHT22;20549;50.042;8.968;2023-01-24T03:21:38;5.20;90.00
30999;DHT22;20549;50.042;8.968;2023-01-24T03:24:22;5.20;90.00
30999;DHT22;20549;50.042;8.968;2023-01-24T03:27:07;5.20;89.90
30999;DHT22;20549;50.042;8.968;2023-01-24T03:29:51;5.20;90.00
30999;DHT22;20549;50.042;8.968;2023-01-24T03:32:35;5.20;89.70
30999;DHT22;20549;50.042;8.968;2023-01-24T03:35:20;5.20;89.70
30999;DHT22;20549;50.042;8.968;2023-01-24T03:37:47;5.20;89.60
30999;DHT22;20549;50.042;8.968;2023-01-24T03:40:32;5.20;89.60
30999;DHT22;20549;50.042;8.968;2023-01-24T03:42:59;5.20;89.60
30999;DHT22;20549;50.042;8.968;2023-01-24T03:45:32;5.20;89.70
30999;DHT22;20549;50.042;8.968;2023-01-24T03:47:58;5.30;89.70
30999;DHT22;20549;50.042;8.968;2023-01-24T03:50:24;5.30;89.60
30999;DHT22;20549;50.042;8.968;2023-01-24T03:53:09;5.30;89.60
30999;DHT22;20549;50.042;8.968;2023-01-24T03:55:35;5.30;89.50
30999;DHT22;20549;50.042;8.968;2023-01-24T03:58:03;5.30;89.50
30999;DHT22;20549;50.042;8.968;2023-01-24T04:00:28;5.30;89.40
30999;DHT22;20549;50.042;8.968;2023-01-24T04:02:55;5.30;89.50
30999;DHT22;20549;50.042;8.968;2023-01-24T04:05:21;5.40;89.40
30999;DHT22;20549;50.042;8.968;2023-01-24T04:07:48;5.40;89.30
30999;DHT22;20549;50.042;8.968;2023-01-24T04:10:15;5.40;89.20
30999;DHT22;20549;50.042;8.968;2023-01-24T04:12:41;5.40;89.20
30999;DHT22;20549;50.042;8.968;2023-01-24T04:15:08;5.40;89.10
30999;DHT22;20549;50.042;8.968;2023-01-24T04:17:34;5.40;88.90
30999;DHT22;20549;50.042;8.968;2023-01-24T04:20:01;5.40;88.80
30999;DHT22;20549;50.042;8.968;2023-01-24T04:22:27;5.40;88.80
30999;DHT22;20549;50.042;8.968;2023-01-24T04:24:54;5.40;88.70
30999;DHT22;20549;50.042;8.968;2023-01-24T04:27:21;5.40;88.60
30999;DHT22;20549;50.042;8.968;2023-01-24T04:29:47;5.50;88.60
30999;DHT22;20549;50.042;8.968;2023-01-24T04:32:14;5.50;88.60
30999;DHT22;20549;50.042;8.968;2023-01-24T04:34:40;5.50;88.50
30999;DHT22;20549;50.042;8.968;2023-01-24T04:37:07;5.50;88.60
30999;DHT22;20549;50.042;8.968;2023-01-24T04:39:34;5.50;88.50
30999;DHT22;20549;50.042;8.968;2023-01-24T04:42:00;5.50;88.50
30999;DHT22;20549;50.042;8.968;2023-01-24T04:44:27;5.40;88.50
30999;DHT22;20549;50.042;8.968;2023-01-24T04:46:53;5.50;88.50
30999;DHT22;20549;50.042;8.968;2023-01-24T04:49:20;5.50;88.50
30999;DHT22;20549;50.042;8.968;2023-01-24T04:51:47;5.50;88.50
30999;DHT22;20549;50.042;8.968;2023-01-24T04:54:13;5.50;88.50
30999;DHT22;20549;50.042;8.968;2023-01-24T04:56:40;5.50;88.50
30999;DHT22;20549;50.042;8.968;2023-01-24T04:59:06;5.50;88.50
30999;DHT22;20549;50.042;8.968;2023-01-24T05:01:33;5.50;88.40
30999;DHT22;20549;50.042;8.968;2023-01-24T05:03:59;5.50;88.30
30999;DHT22;20549;50.042;8.968;2023-01-24T05:06:26;5.50;88.30
30999;DHT22;20549;50.042;8.968;2023-01-24T05:08:53;5.50;88.30
30999;DHT22;20549;50.042;8.968;2023-01-24T05:11:19;5.50;88.20
30999;DHT22;20549;50.042;8.968;2023-01-24T05:13:46;5.50;88.20
30999;DHT22;20549;50.042;8.968;2023-01-24T05:16:12;5.50;88.20
30999;DHT22;20549;50.042;8.968;2023-01-24T05:18:39;5.50;88.20
30999;DHT22;20549;50.042;8.968;2023-01-24T05:21:09;5.50;88.20
30999;DHT22;20549;50.042;8.968;2023-01-24T05:23:34;5.50;88.20
30999;DHT22;20549;50.042;8.968;2023-01-24T05:26:01;5.50;88.10
30999;DHT22;20549;50.042;8.968;2023-01-24T05:28:28;5.50;88.10
30999;DHT22;20549;50.042;8.968;2023-01-24T05:30:58;5.50;88.10
30999;DHT22;20549;50.042;8.968;2023-01-24T05:33:24;5.50;88.10
30999;DHT22;20549;50.042;8.968;2023-01-24T05:35:56;5.50;88.00
30999;DHT22;20549;50.042;8.968;2023-01-24T05:38:17;5.50;88.80
30999;DHT22;20549;50.042;8.968;2023-01-24T05:40:43;5.50;88.10
30999;DHT22;20549;50.042;8.968;2023-01-24T05:43:10;5.50;88.20
30999;DHT22;20549;50.042;8.968;2023-01-24T05:45:36;5.50;88.20
30999;DHT22;20549;50.042;8.968;2023-01-24T05:48:03;5.50;88.20
30999;DHT22;20549;50.042;8.968;2023-01-24T05:50:30;5.50;88.30
30999;DHT22;20549;50.042;8.968;2023-01-24T05:52:56;5.50;88.20
30999;DHT22;20549;50.042;8.968;2023-01-24T05:55:23;5.50;88.20
30999;DHT22;20549;50.042;8.968;2023-01-24T05:57:49;5.50;88.70
30999;DHT22;20549;50.042;8.968;2023-01-24T06:00:16;5.50;88.30
30999;DHT22;20549;50.042;8.968;2023-01-24T06:02:43;5.50;88.40
30999;DHT22;20549;50.042;8.968;2023-01-24T06:05:09;5.60;88.50
30999;DHT22;20549;50.042;8.968;2023-01-24T06:07:36;5.60;88.50
30999;DHT22;20549;50.042;8.968;2023-01-24T06:10:02;5.60;88.50
30999;DHT22;20549;50.042;8.968;2023-01-24T06:12:29;5.60;88.50
30999;DHT22;20549;50.042;8.968;2023-01-24T06:14:55;5.60;88.50
30999;DHT22;20549;50.042;8.968;2023-01-24T06:17:22;5.60;88.50
30999;DHT22;20549;50.042;8.968;2023-01-24T06:19:49;5.70;88.60
30999;DHT22;20549;50.042;8.968;2023-01-24T06:22:36;5.70;88.50
30999;DHT22;20549;50.042;8.968;2023-01-24T06:25:00;5.70;88.40
30999;DHT22;20549;50.042;8.968;2023-01-24T06:27:26;5.70;88.30
30999;DHT22;20549;50.042;8.968;2023-01-24T06:29:53;5.70;88.30
30999;DHT22;20549;50.042;8.968;2023-01-24T06:32:27;5.70;88.40
30999;DHT22;20549;50.042;8.968;2023-01-24T06:37:49;5.70;88.30
30999;DHT22;20549;50.042;8.968;2023-01-24T06:40:16;5.80;88.30
30999;DHT22;20549;50.042;8.968;2023-01-24T06:42:42;5.80;88.30
30999;DHT22;20549;50.042;8.968;2023-01-24T06:45:09;5.80;88.40
30999;DHT22;20549;50.042;8.968;2023-01-24T06:47:35;5.80;88.40
30999;DHT22;20549;50.042;8.968;2023-01-24T06:50:02;5.80;88.30
30999;DHT22;20549;50.042;8.968;2023-01-24T06:52:28;5.80;88.20
30999;DHT22;20549;50.042;8.968;2023-01-24T06:54:55;5.80;88.20
30999;DHT22;20549;50.042;8.968;2023-01-24T06:57:22;5.80;88.20
30999;DHT22;20549;50.042;8.968;2023-01-24T06:59:48;5.80;88.00
30999;DHT22;20549;50.042;8.968;2023-01-24T07:02:15;5.80;88.10
30999;DHT22;20549;50.042;8.968;2023-01-24T07:04:41;5.80;88.00
30999;DHT22;20549;50.042;8.968;2023-01-24T07:07:08;5.90;88.10
30999;DHT22;20549;50.042;8.968;2023-01-24T07:09:35;5.90;88.10
30999;DHT22;20549;50.042;8.968;2023-01-24T07:12:01;5.90;88.00
30999;DHT22;20549;50.042;8.968;2023-01-24T07:14:28;5.90;88.10
30999;DHT22;20549;50.042;8.968;2023-01-24T07:16:54;5.90;88.00
30999;DHT22;20549;50.042;8.968;2023-01-24T07:19:21;5.90;88.00
30999;DHT22;20549;50.042;8.968;2023-01-24T07:21:47;5.90;88.00
30999;DHT22;20549;50.042;8.968;2023-01-24T07:24:16;6.00;88.20
30999;DHT22;20549;50.042;8.968;2023-01-24T07:26:41;6.00;88.10
30999;DHT22;20549;50.042;8.968;2023-01-24T07:29:07;6.00;88.10
30999;DHT22;20549;50.042;8.968;2023-01-24T07:31:34;6.00;88.20
30999;DHT22;20549;50.042;8.968;2023-01-24T07:34:00;6.00;88.20
30999;DHT22;20549;50.042;8.968;2023-01-24T07:36:27;6.00;88.20
30999;DHT22;20549;50.042;8.968;2023-01-24T07:38:54;6.00;88.10
30999;DHT22;20549;50.042;8.968;2023-01-24T07:41:20;6.10;88.00
30999;DHT22;20549;50.042;8.968;2023-01-24T07:43:47;6.00;88.00
30999;DHT22;20549;50.042;8.968;2023-01-24T07:46:13;6.10;88.00
30999;DHT22;20549;50.042;8.968;2023-01-24T07:48:40;6.10;87.90
30999;DHT22;20549;50.042;8.968;2023-01-24T07:51:06;6.10;87.90
30999;DHT22;20549;50.042;8.968;2023-01-24T07:53:33;6.10;87.80
30999;DHT22;20549;50.042;8.968;2023-01-24T07:56:00;6.10;87.80
30999;DHT22;20549;50.042;8.968;2023-01-24T07:58:26;6.10;87.60
30999;DHT22;20549;50.042;8.968;2023-01-24T08:00:53;6.10;87.60
30999;DHT22;20549;50.042;8.968;2023-01-24T08:03:19;6.20;87.80
30999;DHT22;20549;50.042;8.968;2023-01-24T08:05:46;6.20;87.70
30999;DHT22;20549;50.042;8.968;2023-01-24T08:08:13;6.20;87.70
30999;DHT22;20549;50.042;8.968;2023-01-24T08:10:39;6.20;87.60
30999;DHT22;20549;50.042;8.968;2023-01-24T08:13:06;6.20;87.70
30999;DHT22;20549;50.042;8.968;2023-01-24T08:15:32;6.20;87.80
30999;DHT22;20549;50.042;8.968;2023-01-24T08:18:01;6.20;87.80
30999;DHT22;20549;50.042;8.968;2023-01-24T08:20:25;6.30;87.80
30999;DHT22;20549;50.042;8.968;2023-01-24T08:22:53;6.30;87.60
30999;DHT22;20549;50.042;8.968;2023-01-24T08:25:19;6.30;87.50
30999;DHT22;20549;50.042;8.968;2023-01-24T08:27:45;6.30;87.50
30999;DHT22;20549;50.042;8.968;2023-01-24T08:30:12;6.30;87.50
30999;DHT22;20549;50.042;8.968;2023-01-24T08:32:38;6.40;87.50
30999;DHT22;20549;50.042;8.968;2023-01-24T08:35:05;6.40;87.50
30999;DHT22;20549;50.042;8.968;2023-01-24T08:37:32;6.40;87.50
30999;DHT22;20549;50.042;8.968;2023-01-24T08:39:58;6.40;87.50
30999;DHT22;20549;50.042;8.968;2023-01-24T08:42:25;6.50;87.50
30999;DHT22;20549;50.042;8.968;2023-01-24T08:44:51;6.40;87.40
30999;DHT22;20549;50.042;8.968;2023-01-24T08:47:18;6.50;87.30
30999;DHT22;20549;50.042;8.968;2023-01-24T08:49:44;6.50;87.30
30999;DHT22;20549;50.042;8.968;2023-01-24T08:52:11;6.50;87.10
30999;DHT22;20549;50.042;8.968;2023-01-24T08:54:38;6.60;87.10
30999;DHT22;20549;50.042;8.968;2023-01-24T08:57:04;6.60;87.00
30999;DHT22;20549;50.042;8.968;2023-01-24T08:59:31;6.60;87.00
30999;DHT22;20549;50.042;8.968;2023-01-24T09:01:57;6.60;86.90
30999;DHT22;20549;50.042;8.968;2023-01-24T09:04:24;6.60;86.80
30999;DHT22;20549;50.042;8.968;2023-01-24T09:06:51;6.60;86.70
30999;DHT22;20549;50.042;8.968;2023-01-24T09:09:17;6.60;86.40
30999;DHT22;20549;50.042;8.968;2023-01-24T09:11:44;6.70;86.40
30999;DHT22;20549;50.042;8.968;2023-01-24T09:14:10;6.70;86.30
30999;DHT22;20549;50.042;8.968;2023-01-24T09:16:38;6.70;86.40
30999;DHT22;20549;50.042;8.968;2023-01-24T09:19:04;6.70;86.20
30999;DHT22;20549;50.042;8.968;2023-01-24T09:21:31;6.70;86.10
30999;DHT22;20549;50.042;8.968;2023-01-24T09:23:58;6.80;86.20
30999;DHT22;20549;50.042;8.968;2023-01-24T09:26:24;6.80;86.20
30999;DHT22;20549;50.042;8.968;2023-01-24T09:28:51;6.80;86.00
30999;DHT22;20549;50.042;8.968;2023-01-24T09:31:17;6.80;85.90
30999;DHT22;20549;50.042;8.968;2023-01-24T09:33:44;6.80;85.90
30999;DHT22;20549;50.042;8.968;2023-01-24T09:36:11;6.80;85.70
30999;DHT22;20549;50.042;8.968;2023-01-24T09:38:37;6.80;85.70
30999;DHT22;20549;50.042;8.968;2023-01-24T09:43:51;6.90;85.60
30999;DHT22;20549;50.042;8.968;2023-01-24T09:51:39;6.80;85.30
30999;DHT22;20549;50.042;8.968;2023-01-24T09:54:03;6.80;85.00
30999;DHT22;20549;50.042;8.968;2023-01-24T09:56:37;6.80;85.20
30999;DHT22;20549;50.042;8.968;2023-01-24T09:59:15;6.90;85.20
30999;DHT22;20549;50.042;8.968;2023-01-24T10:01:38;6.90;85.30
30999;DHT22;20549;50.042;8.968;2023-01-24T10:04:08;6.90;85.10
30999;DHT22;20549;50.042;8.968;2023-01-24T10:06:31;6.90;85.10
30999;DHT22;20549;50.042;8.968;2023-01-24T10:11:51;6.90;85.00
30999;DHT22;20549;50.042;8.968;2023-01-24T10:16:56;7.00;84.70
30999;DHT22;20549;50.042;8.968;2023-01-24T10:22:26;7.00;84.70
30999;DHT22;20549;50.042;8.968;2023-01-24T10:27:45;7.00;84.50
30999;DHT22;20549;50.042;8.968;2023-01-24T10:30:23;7.00;84.30
30999;DHT22;20549;50.042;8.968;2023-01-24T10:32:50;7.00;84.30
30999;DHT22;20549;50.042;8.968;2023-01-24T10:35:36;7.00;84.30
30999;DHT22;20549;50.042;8.968;2023-01-24T10:37:58;7.00;84.20
30999;DHT22;20549;50.042;8.968;2023-01-24T10:40:24;7.00;84.10
30999;DHT22;20549;50.042;8.968;2023-01-24T10:42:50;7.00;83.90
30999;DHT22;20549;50.042;8.968;2023-01-24T10:45:35;7.00;83.80
30999;DHT22;20549;50.042;8.968;2023-01-24T10:48:23;7.10;83.80
30999;DHT22;20549;50.042;8.968;2023-01-24T10:50:43;7.00;83.70
30999;DHT22;20549;50.042;8.968;2023-01-24T10:53:33;7.10;83.80
30999;DHT22;20549;50.042;8.968;2023-01-24T10:55:38;7.10;83.80
30999;DHT22;20549;50.042;8.968;2023-01-24T10:58:19;7.10;83.70
30999;DHT22;20549;50.042;8.968;2023-01-24T11:00:43;7.10;83.50
30999;DHT22;20549;50.042;8.968;2023-01-24T11:03:20;7.10;83.50
30999;DHT22;20549;50.042;8.968;2023-01-24T11:05:49;7.10;84.30
30999;DHT22;20549;50.042;8.968;2023-01-24T11:08:17;7.10;83.40
30999;DHT22;20549;50.042;8.968;2023-01-24T11:10:41;7.10;83.10
30999;DHT22;20549;50.042;8.968;2023-01-24T11:15:51;7.20;83.20
30999;DHT22;20549;50.042;8.968;2023-01-24T11:18:19;7.10;83.10
30999;DHT22;20549;50.042;8.968;2023-01-24T11:20:43;7.20;83.10
30999;DHT22;20549;50.042;8.968;2023-01-24T11:23:12;7.20;83.10
30999;DHT22;20549;50.042;8.968;2023-01-24T11:25:39;7.20;82.90
30999;DHT22;20549;50.042;8.968;2023-01-24T11:28:03;7.20;82.70
30999;DHT22;20549;50.042;8.968;2023-01-24T11:30:30;7.20;82.60
30999;DHT22;20549;50.042;8.968;2023-01-24T11:33:21;7.20;82.60
30999;DHT22;20549;50.042;8.968;2023-01-24T11:35:42;7.20;82.70
30999;DHT22;20549;50.042;8.968;2023-01-24T11:40:41;7.20;82.60
30999;DHT22;20549;50.042;8.968;2023-01-24T11:48:30;7.30;82.60
30999;DHT22;20549;50.042;8.968;2023-01-24T11:51:19;7.30;82.40
30999;DHT22;20549;50.042;8.968;2023-01-24T11:53:48;7.30;82.40
30999;DHT22;20549;50.042;8.968;2023-01-24T11:56:35;7.30;82.30
30999;DHT22;20549;50.042;8.968;2023-01-24T11:59:33;7.30;82.10
30999;DHT22;20549;50.042;8.968;2023-01-24T12:07:48;7.30;82.10
30999;DHT22;20549;50.042;8.968;2023-01-24T12:21:18;7.30;82.20
30999;DHT22;20549;50.042;8.968;2023-01-24T12:24:19;7.30;82.30
30999;DHT22;20549;50.042;8.968;2023-01-24T12:26:24;7.30;82.10
30999;DHT22;20549;50.042;8.968;2023-01-24T12:31:51;7.40;82.00
30999;DHT22;20549;50.042;8.968;2023-01-24T12:34:45;7.40;81.80
30999;DHT22;20549;50.042;8.968;2023-01-24T12:37:12;7.40;81.80
30999;DHT22;20549;50.042;8.968;2023-01-24T12:40:15;7.40;81.90
30999;DHT22;20549;50.042;8.968;2023-01-24T12:42:55;7.40;81.70
30999;DHT22;20549;50.042;8.968;2023-01-24T12:45:32;7.50;81.80
30999;DHT22;20549;50.042;8.968;2023-01-24T12:48:19;7.50;81.70
30999;DHT22;20549;50.042;8.968;2023-01-24T12:53:24;7.50;81.30
30999;DHT22;20549;50.042;8.968;2023-01-24T12:55:54;7.40;81.00
30999;DHT22;20549;50.042;8.968;2023-01-24T12:58:30;7.40;81.00
30999;DHT22;20549;50.042;8.968;2023-01-24T13:03:34;7.40;80.80
30999;DHT22;20549;50.042;8.968;2023-01-24T13:09:02;7.30;80.70
30999;DHT22;20549;50.042;8.968;2023-01-24T13:11:26;7.30;80.80
30999;DHT22;20549;50.042;8.968;2023-01-24T13:14:05;7.30;80.90
30999;DHT22;20549;50.042;8.968;2023-01-24T13:16:57;7.30;80.80
30999;DHT22;20549;50.042;8.968;2023-01-24T13:22:02;7.30;81.00
30999;DHT22;20549;50.042;8.968;2023-01-24T13:24:45;7.30;81.30
30999;DHT22;20549;50.042;8.968;2023-01-24T13:27:28;7.30;81.20
30999;DHT22;20549;50.042;8.968;2023-01-24T13:32:36;7.30;81.20
30999;DHT22;20549;50.042;8.968;2023-01-24T13:35:03;7.30;81.00
30999;DHT22;20549;50.042;8.968;2023-01-24T13:37:31;7.30;81.00
30999;DHT22;20549;50.042;8.968;2023-01-24T13:40:00;7.30;81.00
30999;DHT22;20549;50.042;8.968;2023-01-24T13:42:35;7.30;80.70
30999;DHT22;20549;50.042;8.968;2023-01-24T13:47:46;7.30;80.60
30999;DHT22;20549;50.042;8.968;2023-01-24T13:50:13;7.30;80.60
30999;DHT22;20549;50.042;8.968;2023-01-24T13:52:40;7.30;80.90
30999;DHT22;20549;50.042;8.968;2023-01-24T13:57:47;7.30;81.80
30999;DHT22;20549;50.042;8.968;2023-01-24T14:00:17;7.30;80.80
30999;DHT22;20549;50.042;8.968;2023-01-24T14:07:58;7.30;80.80
30999;DHT22;20549;50.042;8.968;2023-01-24T14:10:37;7.30;81.00
30999;DHT22;20549;50.042;8.968;2023-01-24T14:13:03;7.30;80.70
30999;DHT22;20549;50.042;8.968;2023-01-24T14:15:39;7.30;80.40
30999;DHT22;20549;50.042;8.968;2023-01-24T14:18:40;7.30;80.60
30999;DHT22;20549;50.042;8.968;2023-01-24T14:21:08;7.30;80.50
30999;DHT22;20549;50.042;8.968;2023-01-24T14:23:31;7.20;80.30
30999;DHT22;20549;50.042;8.968;2023-01-24T14:25:58;7.20;80.40
30999;DHT22;20549;50.042;8.968;2023-01-24T14:28:36;7.20;80.50
30999;DHT22;20549;50.042;8.968;2023-01-24T14:31:04;7.20;80.60
30999;DHT22;20549;50.042;8.968;2023-01-24T14:33:34;7.20;80.40
30999;DHT22;20549;50.042;8.968;2023-01-24T14:39:12;7.10;80.60
30999;DHT22;20549;50.042;8.968;2023-01-24T14:41:39;7.10;80.50
30999;DHT22;20549;50.042;8.968;2023-01-24T14:44:15;7.10;80.60
30999;DHT22;20549;50.042;8.968;2023-01-24T14:46:31;7.10;80.60
30999;DHT22;20549;50.042;8.968;2023-01-24T14:48:58;7.10;80.40
30999;DHT22;20549;50.042;8.968;2023-01-24T14:51:25;7.10;80.40
30999;DHT22;20549;50.042;8.968;2023-01-24T14:53:52;7.10;80.40
30999;DHT22;20549;50.042;8.968;2023-01-24T14:56:18;7.10;80.50
30999;DHT22;20549;50.042;8.968;2023-01-24T14:58:44;7.10;80.60
30999;DHT22;20549;50.042;8.968;2023-01-24T15:01:32;7.10;80.70
30999;DHT22;20549;50.042;8.968;2023-01-24T15:03:49;7.00;80.70
30999;DHT22;20549;50.042;8.968;2023-01-24T15:06:16;7.10;80.70
30999;DHT22;20549;50.042;8.968;2023-01-24T15:08:43;7.10;80.70
30999;DHT22;20549;50.042;8.968;2023-01-24T15:11:19;7.10;80.60
30999;DHT22;20549;50.042;8.968;2023-01-24T15:13:46;7.10;80.60
30999;DHT22;20549;50.042;8.968;2023-01-24T15:16:21;7.10;80.70
30999;DHT22;20549;50.042;8.968;2023-01-24T15:18:45;7.00;80.70
30999;DHT22;20549;50.042;8.968;2023-01-24T15:21:22;7.00;80.60
30999;DHT22;20549;50.042;8.968;2023-01-24T15:23:52;7.00;80.60
30999;DHT22;20549;50.042;8.968;2023-01-24T15:28:51;7.00;80.50
30999;DHT22;20549;50.042;8.968;2023-01-24T15:31:21;7.00;80.60
30999;DHT22;20549;50.042;8.968;2023-01-24T15:33:52;7.00;80.50
30999;DHT22;20549;50.042;8.968;2023-01-24T15:36:26;6.90;81.20
30999;DHT22;20549;50.042;8.968;2023-01-24T15:38:52;6.90;80.50
30999;DHT22;20549;50.042;8.968;2023-01-24T15:41:24;6.90;80.50
30999;DHT22;20549;50.042;8.968;2023-01-24T15:44:04;6.90;80.60
30999;DHT22;20549;50.042;8.968;2023-01-24T15:46:27;6.90;80.60
30999;DHT22;20549;50.042;8.968;2023-01-24T15:51:42;6.80;80.70
30999;DHT22;20549;50.042;8.968;2023-01-24T15:54:13;6.80;80.70
30999;DHT22;20549;50.042;8.968;2023-01-24T15:56:38;6.80;80.70
30999;DHT22;20549;50.042;8.968;2023-01-24T15:59:17;6.80;80.90
30999;DHT22;20549;50.042;8.968;2023-01-24T16:01:40;6.80;81.60
30999;DHT22;20549;50.042;8.968;2023-01-24T16:04:17;6.80;80.90
30999;DHT22;20549;50.042;8.968;2023-01-24T16:06:43;6.70;80.70
30999;DHT22;20549;50.042;8.968;2023-01-24T16:09:09;6.70;80.90
30999;DHT22;20549;50.042;8.968;2023-01-24T16:11:36;6.70;81.00
30999;DHT22;20549;50.042;8.968;2023-01-24T16:14:02;6.70;81.00
30999;DHT22;20549;50.042;8.968;2023-01-24T16:16:29;6.70;81.20
30999;DHT22;20549;50.042;8.968;2023-01-24T16:18:56;6.70;81.00
30999;DHT22;20549;50.042;8.968;2023-01-24T16:21:22;6.70;81.00
30999;DHT22;20549;50.042;8.968;2023-01-24T16:23:49;6.70;81.20
30999;DHT22;20549;50.042;8.968;2023-01-24T16:26:22;6.70;81.20
30999;DHT22;20549;50.042;8.968;2023-01-24T16:28:48;6.70;81.20
30999;DHT22;20549;50.042;8.968;2023-01-24T16:31:14;6.70;81.30
30999;DHT22;20549;50.042;8.968;2023-01-24T16:33:41;6.70;81.30
30999;DHT22;20549;50.042;8.968;2023-01-24T16:36:09;6.70;81.40
30999;DHT22;20549;50.042;8.968;2023-01-24T16:38:34;6.70;81.30
30999;DHT22;20549;50.042;8.968;2023-01-24T16:41:02;6.70;81.30
30999;DHT22;20549;50.042;8.968;2023-01-24T16:43:27;6.70;81.40
30999;DHT22;20549;50.042;8.968;2023-01-24T16:45:54;6.70;81.50
30999;DHT22;20549;50.042;8.968;2023-01-24T16:48:20;6.70;81.40
30999;DHT22;20549;50.042;8.968;2023-01-24T16:50:47;6.70;81.50
30999;DHT22;20549;50.042;8.968;2023-01-24T16:53:14;6.70;81.40
30999;DHT22;20549;50.042;8.968;2023-01-24T16:55:40;6.70;81.40
30999;DHT22;20549;50.042;8.968;2023-01-24T16:58:07;6.70;81.50
30999;DHT22;20549;50.042;8.968;2023-01-24T17:00:33;6.70;81.40
30999;DHT22;20549;50.042;8.968;2023-01-24T17:03:00;6.70;81.50
30999;DHT22;20549;50.042;8.968;2023-01-24T17:05:27;6.70;81.40
30999;DHT22;20549;50.042;8.968;2023-01-24T17:07:53;6.70;81.40
30999;DHT22;20549;50.042;8.968;2023-01-24T17:10:19;6.70;81.40
30999;DHT22;20549;50.042;8.968;2023-01-24T17:12:46;6.70;81.40
30999;DHT22;20549;50.042;8.968;2023-01-24T17:15:13;6.70;81.80
30999;DHT22;20549;50.042;8.968;2023-01-24T17:17:39;6.60;81.30
30999;DHT22;20549;50.042;8.968;2023-01-24T17:20:06;6.60;81.30
30999;DHT22;20549;50.042;8.968;2023-01-24T17:22:32;6.60;81.40
30999;DHT22;20549;50.042;8.968;2023-01-24T17:24:59;6.60;81.40
30999;DHT22;20549;50.042;8.968;2023-01-24T17:27:25;6.60;81.40
30999;DHT22;20549;50.042;8.968;2023-01-24T17:29:52;6.60;81.40
30999;DHT22;20549;50.042;8.968;2023-01-24T17:32:19;6.60;81.50
30999;DHT22;20549;50.042;8.968;2023-01-24T17:34:45;6.60;81.50